Terminal Aerodrome Forecast
Issued by NWS

Home | Current Version | Previous Version | Text Only | Print | Product List | Glossary On
Versions: 1 2 3 4 5 6 7 8 9 10 11 12 13 14 15 16 17
000
FTUS45 KTFX 021720
TAFHVR
TAF
KHVR 021720Z 0218/0318 26014G20KT P6SM BKN250
     FM030000 29012KT P6SM BKN250
     FM030400 32008KT P6SM BKN140 PROB30 0304/0308 -SHRA BKN080=

USA.gov is the U.S. government's official web portal to all federal, state and local government web resources and services.